Time;durP1;ratioP1;P1;durP2;ratioP2;P2;SDS_P1;SDS_P2;PMS_P1;PMS_P2;Temp;Humidity;BMP_temperature;BMP_pressure;BME280_temperature;BME280_humidity;BME280_pressure;Samples;Min_cycle;Max_cycle;Signal;HPM_P1;HPM_P2
2023/07/09 00:02:24;;;;;;;10.52;5.88;;;29.00;77.60;;;;;;7381072;19;20006;-70
2023/07/09 00:04:53;;;;;;;12.05;5.90;;;29.10;77.60;;;;;;7382258;19;20413;-70
2023/07/09 00:07:27;;;;;;;12.73;5.60;;;29.00;77.50;;;;;;7381455;19;20020;-70
2023/07/09 00:09:57;;;;;;;7.30;4.70;;;29.00;77.70;;;;;;7382063;19;20086;-70
2023/07/09 00:12:25;;;;;;;8.70;5.88;;;29.00;77.80;;;;;;7380255;19;20256;-70
2023/07/09 00:14:57;;;;;;;22.75;6.18;;;29.00;77.80;;;;;;7403184;19;20070;-70
2023/07/09 00:17:30;;;;;;;9.40;5.15;;;28.90;77.70;;;;;;7380612;19;20010;-69
2023/07/09 00:19:59;;;;;;;12.50;5.95;;;28.90;77.80;;;;;;7381146;19;20026;-69
2023/07/09 00:22:28;;;;;;;12.07;5.68;;;28.90;77.60;;;;;;7381121;19;20011;-70
2023/07/09 00:24:58;;;;;;;9.93;5.78;;;28.90;77.80;;;;;;7381118;19;20009;-70
2023/07/09 00:27:31;;;;;;;11.57;6.10;;;28.90;77.80;;;;;;7381218;19;20018;-70
2023/07/09 00:30:04;;;;;;;13.18;6.32;;;28.80;77.70;;;;;;7400940;19;20007;-70
2023/07/09 00:32:43;;;;;;;10.90;5.50;;;28.90;77.90;;;;;;7378832;19;20002;-69
2023/07/09 00:35:12;;;;;;;12.43;6.40;;;28.80;77.90;;;;;;7380070;19;20003;-69
2023/07/09 00:37:41;;;;;;;12.23;5.75;;;28.90;77.80;;;;;;7380292;19;20007;-70
2023/07/09 00:40:18;;;;;;;9.38;5.75;;;28.80;77.80;;;;;;7379642;19;20003;-70
2023/07/09 00:42:49;;;;;;;9.75;5.32;;;28.80;77.60;;;;;;7379234;19;20397;-70
2023/07/09 00:45:25;;;;;;;8.40;5.32;;;28.70;77.50;;;;;;7402366;19;20232;-69
2023/07/09 00:47:57;;;;;;;9.10;5.47;;;28.70;77.60;;;;;;7378421;19;19998;-70
2023/07/09 00:50:41;;;;;;;9.45;5.32;;;28.70;77.80;;;;;;7380176;19;20007;-70
2023/07/09 00:53:18;;;;;;;10.05;5.65;;;28.60;77.80;;;;;;7379491;19;20006;-68
2023/07/09 00:55:51;;;;;;;9.85;5.65;;;28.70;77.90;;;;;;7380036;19;20019;-69
2023/07/09 00:58:21;;;;;;;11.88;6.35;;;28.60;78.00;;;;;;7380579;19;20066;-70
2023/07/09 01:00:57;;;;;;;10.88;6.07;;;28.60;78.10;;;;;;7379293;19;20025;-70
2023/07/09 01:03:30;;;;;;;11.35;5.72;;;28.50;78.30;;;;;;7379956;19;20066;-69
2023/07/09 01:06:00;;;;;;;8.85;5.45;;;28.50;78.60;;;;;;7400011;19;20011;-69
2023/07/09 01:08:31;;;;;;;10.25;5.90;;;28.40;78.70;;;;;;7379145;19;20091;-70
2023/07/09 01:11:01;;;;;;;9.05;5.20;;;28.40;78.80;;;;;;7379169;19;20031;-69
2023/07/09 01:13:32;;;;;;;11.88;5.28;;;28.30;78.80;;;;;;7379735;19;20381;-69
2023/07/09 01:16:03;;;;;;;10.68;6.13;;;28.40;79.00;;;;;;7378372;19;20007;-70
2023/07/09 01:18:32;;;;;;;15.80;5.38;;;28.30;79.00;;;;;;7379074;19;20038;-70
2023/07/09 01:21:06;;;;;;;10.20;5.45;;;28.30;79.10;;;;;;7399389;19;20027;-69
2023/07/09 01:23:35;;;;;;;10.35;5.25;;;28.30;79.20;;;;;;7377173;19;20007;-69
2023/07/09 01:26:03;;;;;;;11.20;5.93;;;28.30;79.00;;;;;;7379657;19;20034;-70
2023/07/09 01:28:32;;;;;;;11.30;5.63;;;28.30;78.90;;;;;;7379951;19;20011;-70
2023/07/09 01:31:04;;;;;;;14.68;5.55;;;28.30;79.20;;;;;;7378532;19;20378;-69
2023/07/09 01:33:33;;;;;;;20.52;5.47;;;28.30;79.10;;;;;;7378980;19;20023;-69
2023/07/09 01:36:04;;;;;;;8.15;5.20;;;28.30;78.90;;;;;;7398771;19;20020;-70
2023/07/09 01:38:33;;;;;;;18.60;5.38;;;28.30;78.80;;;;;;7378137;19;20023;-70
2023/07/09 01:41:02;;;;;;;11.40;5.55;;;28.30;78.90;;;;;;7377801;19;20011;-69
2023/07/09 01:43:32;;;;;;;9.95;5.53;;;28.30;79.20;;;;;;7378768;19;20003;-70
2023/07/09 01:46:01;;;;;;;21.77;7.13;;;28.20;79.40;;;;;;7378178;19;20007;-68
2023/07/09 01:48:30;;;;;;;16.05;7.13;;;28.20;79.40;;;;;;7376611;19;20012;-69
2023/07/09 01:50:59;;;;;;;14.77;7.53;;;28.20;79.70;;;;;;7400904;19;20263;-70
2023/07/09 01:53:30;;;;;;;11.48;6.82;;;28.10;79.60;;;;;;7377914;19;20071;-69
2023/07/09 01:55:59;;;;;;;10.90;6.95;;;28.10;79.60;;;;;;7377545;19;20446;-69
2023/07/09 01:58:30;;;;;;;10.48;6.80;;;28.10;80.60;;;;;;7379393;19;20016;-69
2023/07/09 02:00:59;;;;;;;;;;;28.10;79.40;;;;;;7386797;19;20002;-69
2023/07/09 02:03:28;;;;;;;15.13;5.93;;;28.20;79.70;;;;;;7384919;19;19932;-69
2023/07/09 02:05:57;;;;;;;11.23;6.10;;;28.10;79.50;;;;;;7406124;19;20010;-69
2023/07/09 02:08:26;;;;;;;11.82;6.38;;;28.10;79.70;;;;;;7386223;19;20003;-69
2023/07/09 02:10:57;;;;;;;8.75;5.70;;;28.10;79.90;;;;;;7386372;19;20011;-70
2023/07/09 02:13:26;;;;;;;8.73;5.03;;;28.00;80.40;;;;;;7384997;19;20035;-70
2023/07/09 02:15:54;;;;;;;9.10;5.45;;;27.90;80.10;;;;;;7388051;19;20414;-69
2023/07/09 02:18:23;;;;;;;24.00;5.90;;;27.90;80.00;;;;;;7385856;19;20014;-70
2023/07/09 02:20:52;;;;;;;10.63;5.80;;;27.90;80.20;;;;;;7406563;19;20048;-70
2023/07/09 02:23:20;;;;;;;7.57;5.30;;;27.90;80.50;;;;;;7382393;19;20366;-70
2023/07/09 02:25:49;;;;;;;12.32;6.63;;;27.90;80.60;;;;;;7384623;19;20062;-69
2023/07/09 02:28:20;;;;;;;12.50;5.75;;;27.80;81.50;;;;;;7384781;19;20370;-69
2023/07/09 02:30:49;;;;;;;11.57;6.47;;;27.80;81.10;;;;;;7384787;19;20067;-69
2023/07/09 02:33:20;;;;;;;13.70;6.25;;;27.80;80.90;;;;;;7399201;19;20021;-69
2023/07/09 02:35:49;;;;;;;10.40;5.72;;;27.80;80.90;;;;;;7403487;19;20398;-69
2023/07/09 02:38:17;;;;;;;10.25;5.60;;;27.70;81.10;;;;;;7382967;19;20006;-69
2023/07/09 02:40:46;;;;;;;10.38;5.70;;;27.70;81.00;;;;;;7382935;19;20015;-71
2023/07/09 02:43:15;;;;;;;11.40;6.10;;;27.70;80.80;;;;;;7383280;19;20011;-69
2023/07/09 02:45:46;;;;;;;16.45;6.75;;;27.70;81.10;;;;;;7382083;19;20078;-69
2023/07/09 02:48:14;;;;;;;12.95;6.93;;;27.70;81.40;;;;;;7404280;19;20006;-70
2023/07/09 02:50:43;;;;;;;15.15;6.40;;;27.60;81.70;;;;;;7384946;19;20014;-69
2023/07/09 02:53:12;;;;;;;16.27;8.15;;;27.60;81.70;;;;;;7382778;19;20011;-69
2023/07/09 02:55:40;;;;;;;14.20;6.75;;;27.60;81.60;;;;;;7384042;19;20110;-69
2023/07/09 02:58:09;;;;;;;12.80;6.72;;;27.60;81.50;;;;;;7383959;19;20232;-69
2023/07/09 03:00:38;;;;;;;11.35;6.60;;;27.60;81.80;;;;;;7384230;19;20023;-69
2023/07/09 03:03:09;;;;;;;10.20;6.45;;;27.70;81.90;;;;;;7403712;19;20003;-69
2023/07/09 03:05:38;;;;;;;12.75;6.20;;;27.60;82.60;;;;;;7386076;19;20015;-69
2023/07/09 03:08:07;;;;;;;9.70;6.03;;;27.70;81.90;;;;;;7384775;19;20278;-69
2023/07/09 03:10:35;;;;;;;10.02;6.18;;;27.60;82.10;;;;;;7380085;19;20070;-70
2023/07/09 03:13:04;;;;;;;12.60;6.25;;;27.60;82.10;;;;;;7382189;19;20003;-69
2023/07/09 03:15:33;;;;;;;14.23;6.45;;;27.60;82.10;;;;;;7383724;19;20011;-70
2023/07/09 03:18:02;;;;;;;13.88;6.53;;;27.60;82.20;;;;;;7405116;19;20019;-69
2023/07/09 03:20:34;;;;;;;11.73;6.40;;;27.50;82.50;;;;;;7383483;19;20058;-69
2023/07/09 03:23:04;;;;;;;13.48;6.97;;;27.40;82.70;;;;;;7384065;19;20371;-69
2023/07/09 03:25:33;;;;;;;12.23;6.80;;;27.40;82.90;;;;;;7385534;19;20101;-68
2023/07/09 03:28:02;;;;;;;12.25;6.50;;;27.40;83.00;;;;;;7383247;19;20003;-69
2023/07/09 03:30:30;;;;;;;10.77;6.15;;;27.40;83.20;;;;;;7382335;19;20073;-69
2023/07/09 03:33:00;;;;;;;18.80;6.50;;;27.40;83.20;;;;;;7402527;19;20011;-68
2023/07/09 03:35:29;;;;;;;12.88;7.22;;;27.40;83.20;;;;;;7382014;19;20009;-68
2023/07/09 03:38:00;;;;;;;16.98;6.40;;;27.40;83.40;;;;;;7381772;19;20007;-69
2023/07/09 03:40:28;;;;;;;;;;;27.30;83.30;;;;;;7381682;19;20154;-69
2023/07/09 03:42:57;;;;;;;12.85;6.15;;;27.30;83.20;;;;;;7381040;19;19914;-70
2023/07/09 03:45:26;;;;;;;12.68;6.30;;;27.40;83.20;;;;;;7383441;19;20012;-70
2023/07/09 03:47:55;;;;;;;14.32;7.07;;;27.30;83.00;;;;;;7407711;19;20014;-69
2023/07/09 03:50:25;;;;;;;12.98;6.80;;;27.20;83.10;;;;;;7381105;19;20026;-69
2023/07/09 03:52:53;;;;;;;12.23;6.30;;;27.10;83.10;;;;;;7380279;19;20005;-69
2023/07/09 03:55:26;;;;;;;11.57;6.60;;;27.00;83.40;;;;;;7380687;19;20015;-70
2023/07/09 03:57:55;;;;;;;10.88;5.68;;;26.90;83.50;;;;;;7381941;19;20006;-69
2023/07/09 04:00:24;;;;;;;12.57;6.22;;;26.90;83.60;;;;;;7379913;19;20018;-69
2023/07/09 04:02:56;;;;;;;9.50;6.30;;;27.00;83.40;;;;;;7402511;19;20018;-70
2023/07/09 04:05:25;;;;;;;10.85;6.25;;;27.00;83.20;;;;;;7380838;19;20062;-69
2023/07/09 04:07:54;;;;;;;13.35;6.20;;;27.00;84.00;;;;;;7380355;19;20010;-69
2023/07/09 04:10:25;;;;;;;10.88;5.50;;;26.90;83.00;;;;;;7379877;19;20006;-69
2023/07/09 04:12:54;;;;;;;9.90;5.65;;;26.90;83.20;;;;;;7380201;19;20019;-69
2023/07/09 04:15:22;;;;;;;10.23;5.32;;;27.00;83.10;;;;;;7378921;19;20028;-69
2023/07/09 04:17:51;;;;;;;10.13;5.95;;;27.00;83.10;;;;;;7400400;19;20067;-70
2023/07/09 04:20:20;;;;;;;10.52;5.47;;;27.00;82.80;;;;;;7380604;19;20003;-70
2023/07/09 04:22:49;;;;;;;9.98;5.40;;;27.00;82.50;;;;;;7379275;19;20007;-70
2023/07/09 04:25:17;;;;;;;11.68;5.60;;;27.00;82.60;;;;;;7380468;19;20011;-69
2023/07/09 04:27:50;;;;;;;11.15;5.95;;;27.00;82.70;;;;;;7382438;19;20010;-69
2023/07/09 04:30:19;;;;;;;10.05;4.63;;;27.00;82.70;;;;;;7390508;19;20039;-69
2023/07/09 04:32:48;;;;;;;13.30;5.30;;;27.10;83.20;;;;;;7399925;19;20010;-71
2023/07/09 04:35:18;;;;;;;10.95;5.22;;;27.10;82.20;;;;;;7380317;19;20011;-69
2023/07/09 04:37:46;;;;;;;10.77;5.28;;;27.10;82.00;;;;;;7380136;19;20019;-68
2023/07/09 04:40:16;;;;;;;10.48;5.40;;;27.20;82.60;;;;;;7380094;19;20364;-68
2023/07/09 04:42:44;;;;;;;13.63;5.53;;;27.20;81.50;;;;;;7379290;19;20070;-69
2023/07/09 04:45:16;;;;;;;12.05;5.00;;;27.10;81.40;;;;;;7399384;19;20253;-69
2023/07/09 04:47:44;;;;;;;12.50;4.93;;;27.10;81.50;;;;;;7383574;19;20002;-69
2023/07/09 04:50:14;;;;;;;15.10;5.00;;;27.20;81.60;;;;;;7379454;19;20069;-70
2023/07/09 04:52:43;;;;;;;13.60;4.93;;;27.10;81.20;;;;;;7378383;19;20006;-69
2023/07/09 04:55:12;;;;;;;13.02;5.72;;;27.10;81.30;;;;;;7379643;19;20113;-69
2023/07/09 04:57:40;;;;;;;8.60;5.47;;;27.10;81.40;;;;;;7380212;19;20022;-69
2023/07/09 05:00:11;;;;;;;8.05;5.10;;;27.10;81.50;;;;;;7401447;19;20010;-69
2023/07/09 05:02:42;;;;;;;9.88;4.88;;;27.10;81.70;;;;;;7378783;19;19999;-69
2023/07/09 05:05:11;;;;;;;7.22;4.25;;;27.10;81.90;;;;;;7379397;19;20003;-70
2023/07/09 05:07:40;;;;;;;11.00;4.25;;;27.10;81.30;;;;;;7378419;19;20378;-70
2023/07/09 05:10:10;;;;;;;9.30;4.93;;;27.20;81.60;;;;;;7379365;19;20023;-70
2023/07/09 05:12:50;;;;;;;12.57;5.45;;;27.20;81.70;;;;;;7378454;19;20007;-70
2023/07/09 05:15:19;;;;;;;10.68;5.68;;;27.20;81.90;;;;;;7391238;19;20009;-70
2023/07/09 05:17:51;;;;;;;14.70;5.57;;;27.20;82.30;;;;;;7400605;19;20032;-70
2023/07/09 05:20:21;;;;;;;10.93;5.70;;;27.20;82.60;;;;;;7378796;19;20025;-69
2023/07/09 05:22:49;;;;;;;11.07;5.47;;;27.30;82.70;;;;;;7377706;19;20007;-69
2023/07/09 05:25:18;;;;;;;10.25;4.75;;;27.40;82.60;;;;;;7377178;19;20020;-70
2023/07/09 05:27:47;;;;;;;9.90;5.03;;;27.40;82.50;;;;;;7375862;19;20019;-70
2023/07/09 05:30:16;;;;;;;8.18;4.97;;;27.40;82.30;;;;;;7401406;19;20010;-69
2023/07/09 05:32:44;;;;;;;11.25;4.70;;;27.40;81.30;;;;;;7375778;19;20042;-69
2023/07/09 05:35:17;;;;;;;9.48;4.95;;;27.50;81.60;;;;;;7384082;19;20002;-69
2023/07/09 05:37:46;;;;;;;11.52;5.10;;;27.60;81.50;;;;;;7385616;19;20015;-69
2023/07/09 05:40:15;;;;;;;7.85;4.60;;;27.60;81.20;;;;;;7386013;19;20020;-69
2023/07/09 05:42:43;;;;;;;10.23;5.22;;;27.60;81.50;;;;;;7384524;19;20023;-68
2023/07/09 05:45:13;;;;;;;10.48;5.35;;;27.70;80.90;;;;;;7403631;19;20011;-68
2023/07/09 05:47:42;;;;;;;10.52;4.80;;;27.80;80.90;;;;;;7382752;19;20006;-68
2023/07/09 05:50:11;;;;;;;7.53;5.03;;;27.90;80.90;;;;;;7383137;19;20003;-69
2023/07/09 05:52:42;;;;;;;7.38;4.60;;;28.00;81.10;;;;;;7382320;19;20020;-69
2023/07/09 05:55:11;;;;;;;11.15;5.07;;;28.10;79.90;;;;;;7383331;19;20019;-69
2023/07/09 05:57:41;;;;;;;7.50;4.72;;;28.10;79.10;;;;;;7381599;19;20066;-69
2023/07/09 06:00:12;;;;;;;12.95;4.90;;;28.10;78.20;;;;;;7403081;19;20023;-69
2023/07/09 06:02:41;;;;;;;12.80;5.15;;;28.20;78.60;;;;;;7382303;19;20003;-69
2023/07/09 06:05:11;;;;;;;15.43;4.90;;;28.20;78.10;;;;;;7381890;19;20055;-70
2023/07/09 06:07:43;;;;;;;11.32;5.13;;;28.20;77.30;;;;;;7382206;19;20031;-70
2023/07/09 06:10:11;;;;;;;;;;;28.30;77.30;;;;;;7382310;19;20240;-70
2023/07/09 06:12:40;;;;;;;9.50;4.65;;;28.40;77.60;;;;;;7382962;19;19919;-70
2023/07/09 06:15:10;;;;;;;16.65;5.18;;;28.40;77.30;;;;;;7402510;19;20003;-69
2023/07/09 06:17:39;;;;;;;9.77;5.05;;;28.20;77.60;;;;;;7381684;19;20010;-70
2023/07/09 06:20:09;;;;;;;11.20;4.93;;;28.20;77.80;;;;;;7381426;19;20050;-69
2023/07/09 06:22:38;;;;;;;12.20;5.07;;;28.20;77.40;;;;;;7234999;19;2864741;-69
2023/07/09 06:25:10;;;;;;;9.43;4.70;;;28.30;77.30;;;;;;7386042;19;20024;-70
2023/07/09 06:27:38;;;;;;;11.73;5.22;;;28.30;77.20;;;;;;7385533;19;20036;-69
2023/07/09 06:30:09;;;;;;;12.18;5.10;;;28.30;77.30;;;;;;7409732;19;20019;-69
2023/07/09 06:32:37;;;;;;;9.33;4.93;;;28.30;77.30;;;;;;7384617;19;20020;-70
2023/07/09 06:35:07;;;;;;;10.80;4.85;;;28.40;77.00;;;;;;7384537;19;20018;-70
2023/07/09 06:37:35;;;;;;;12.02;5.25;;;28.30;77.10;;;;;;7385024;19;20389;-70
2023/07/09 06:40:07;;;;;;;8.25;4.82;;;28.40;77.30;;;;;;7387928;19;20019;-69
2023/07/09 06:42:38;;;;;;;9.50;4.95;;;28.40;77.50;;;;;;7385699;19;20030;-70
2023/07/09 06:45:08;;;;;;;12.55;4.97;;;28.50;77.50;;;;;;7407656;19;20031;-72
2023/07/09 06:47:37;;;;;;;8.48;4.90;;;28.40;77.10;;;;;;7386563;19;20093;-70
2023/07/09 06:50:07;;;;;;;15.50;5.53;;;28.40;77.10;;;;;;7384551;19;20020;-70
2023/07/09 06:52:35;;;;;;;8.13;5.00;;;28.30;77.40;;;;;;7385106;19;20385;-70
2023/07/09 06:55:04;;;;;;;8.48;5.00;;;28.40;77.70;;;;;;7382370;19;20017;-70
2023/07/09 06:57:33;;;;;;;9.95;4.88;;;28.40;77.50;;;;;;7381315;19;20304;-70
2023/07/09 07:00:06;;;;;;;11.85;4.72;;;28.40;77.10;;;;;;7402904;19;20006;-70
2023/07/09 07:02:35;;;;;;;8.15;4.82;;;28.40;76.20;;;;;;7383448;19;19998;-70
2023/07/09 07:05:04;;;;;;;17.30;5.22;;;28.40;76.90;;;;;;7382782;19;20016;-70
2023/07/09 07:07:32;;;;;;;17.02;5.50;;;28.20;77.30;;;;;;7383864;19;20023;-70
2023/07/09 07:10:01;;;;;;;15.18;5.32;;;28.20;77.60;;;;;;7383610;19;20634;-70
2023/07/09 07:12:32;;;;;;;7.72;5.10;;;28.20;77.90;;;;;;7383560;19;20010;-70
2023/07/09 07:15:00;;;;;;;11.27;4.77;;;28.10;77.90;;;;;;7404238;19;20024;-72
2023/07/09 07:17:31;;;;;;;10.15;5.32;;;28.10;77.80;;;;;;7383278;19;20328;-72
2023/07/09 07:20:00;;;;;;;15.40;5.00;;;28.00;77.80;;;;;;7383453;19;20330;-72
2023/07/09 07:22:29;;;;;;;8.07;5.38;;;27.90;78.00;;;;;;7382343;19;20415;-72
2023/07/09 07:24:57;;;;;;;11.15;4.90;;;27.90;78.10;;;;;;7382391;19;20003;-72
2023/07/09 07:27:26;;;;;;;9.25;5.00;;;27.90;78.40;;;;;;7383733;19;20024;-72
2023/07/09 07:29:55;;;;;;;10.73;5.00;;;27.80;78.10;;;;;;7405652;19;20226;-73
2023/07/09 07:32:24;;;;;;;9.75;4.80;;;27.80;77.80;;;;;;7384829;19;20227;-71
2023/07/09 07:34:55;;;;;;;12.88;5.20;;;27.80;78.30;;;;;;7387125;19;20003;-73
2023/07/09 07:37:24;;;;;;;12.98;5.40;;;27.50;77.90;;;;;;7386823;19;20013;-72
2023/07/09 07:39:53;;;;;;;8.23;5.15;;;27.40;78.30;;;;;;7384463;19;20023;-71
2023/07/09 07:42:22;;;;;;;9.73;5.55;;;27.30;78.80;;;;;;7383045;19;20240;-71
2023/07/09 07:44:52;;;;;;;9.43;5.15;;;27.20;79.00;;;;;;7404295;19;20014;-72
2023/07/09 07:47:22;;;;;;;10.55;4.82;;;27.10;79.00;;;;;;7384965;19;20003;-71
2023/07/09 07:49:55;;;;;;;14.77;5.18;;;27.00;79.30;;;;;;7388186;19;20334;-72
2023/07/09 07:52:25;;;;;;;10.88;5.57;;;27.10;79.20;;;;;;7387068;19;20074;-71
2023/07/09 07:54:54;;;;;;;9.73;5.33;;;27.00;79.10;;;;;;7386550;19;20003;-72
2023/07/09 07:57:24;;;;;;;10.23;5.07;;;27.00;79.10;;;;;;7381289;19;20007;-72
2023/07/09 07:59:53;;;;;;;13.98;5.38;;;27.00;79.30;;;;;;7401928;19;20387;-70
2023/07/09 08:02:22;;;;;;;13.77;4.95;;;27.10;80.10;;;;;;7380950;19;20027;-71
2023/07/09 08:04:50;;;;;;;13.82;5.28;;;27.10;79.20;;;;;;7381627;19;20023;-71
2023/07/09 08:07:24;;;;;;;14.48;7.97;;;27.20;79.20;;;;;;7380844;19;20006;-71
2023/07/09 08:09:53;;;;;;;9.00;5.70;;;27.20;79.40;;;;;;7379996;19;20417;-72
2023/07/09 08:12:22;;;;;;;13.45;6.15;;;27.30;79.70;;;;;;7384813;19;20003;-72
2023/07/09 08:14:50;;;;;;;11.48;5.40;;;27.40;79.90;;;;;;7402910;19;20010;-72
2023/07/09 08:17:19;;;;;;;15.35;5.00;;;27.40;80.00;;;;;;7384635;19;20019;-72
2023/07/09 08:19:51;;;;;;;11.93;6.43;;;27.40;79.30;;;;;;7384888;19;20007;-73
2023/07/09 08:22:22;;;;;;;13.90;5.18;;;27.30;79.00;;;;;;7381910;19;20232;-73
2023/07/09 08:24:52;;;;;;;9.15;5.28;;;27.20;78.80;;;;;;7382418;19;20015;-71
2023/07/09 08:27:21;;;;;;;10.45;4.72;;;27.10;79.20;;;;;;7385948;19;20010;-70
2023/07/09 08:29:50;;;;;;;11.38;4.80;;;27.00;80.00;;;;;;7400679;19;20062;-69
2023/07/09 08:32:18;;;;;;;13.82;5.93;;;26.80;81.40;;;;;;7383297;19;20070;-69
2023/07/09 08:34:47;;;;;;;11.23;4.93;;;26.80;82.00;;;;;;7379547;19;20012;-69
2023/07/09 08:37:16;;;;;;;8.75;4.68;;;26.80;82.50;;;;;;7379728;19;20288;-67
2023/07/09 08:39:47;;;;;;;12.20;5.13;;;26.90;82.70;;;;;;7380369;19;20028;-69
2023/07/09 08:42:17;;;;;;;;;;;27.00;82.80;;;;;;7401622;19;20054;-69
2023/07/09 08:45:05;;;;;;;9.07;5.30;;;27.00;82.70;;;;;;7380557;19;20129;-69
2023/07/09 08:47:43;;;;;;;14.45;5.35;;;27.10;82.80;;;;;;7379870;19;20255;-69
2023/07/09 08:50:15;;;;;;;9.00;4.63;;;27.20;82.90;;;;;;7379090;19;20007;-69
2023/07/09 08:52:46;;;;;;;10.35;4.57;;;27.30;82.70;;;;;;7379479;19;20296;-69
2023/07/09 08:55:20;;;;;;;17.05;5.20;;;27.40;81.60;;;;;;7380963;19;20381;-69
2023/07/09 08:57:51;;;;;;;16.52;5.00;;;27.40;81.70;;;;;;7382490;19;20010;-69
2023/07/09 09:00:32;;;;;;;12.68;5.65;;;27.50;82.00;;;;;;7381839;19;20014;-69
2023/07/09 09:03:03;;;;;;;13.63;6.72;;;27.50;80.80;;;;;;7402636;19;20364;-69
2023/07/09 09:05:36;;;;;;;14.80;5.57;;;27.60;81.20;;;;;;7379699;19;20342;-69
2023/07/09 09:08:11;;;;;;;12.63;4.88;;;27.70;81.40;;;;;;7378720;19;20221;-69
2023/07/09 09:10:49;;;;;;;11.73;4.88;;;27.70;80.80;;;;;;7386969;19;20003;-69
2023/07/09 09:13:20;;;;;;;7.50;4.72;;;27.60;80.30;;;;;;7387411;19;20078;-69
2023/07/09 09:15:51;;;;;;;14.50;5.10;;;27.60;80.20;;;;;;7384774;19;20011;-69
2023/07/09 09:18:25;;;;;;;8.23;4.38;;;27.60;80.10;;;;;;7384137;19;20106;-70
2023/07/09 09:21:09;;;;;;;10.35;4.63;;;27.50;79.60;;;;;;7408492;19;20007;-69
2023/07/09 09:23:43;;;;;;;11.48;4.60;;;27.40;79.70;;;;;;7384357;19;20006;-69
2023/07/09 09:26:20;;;;;;;7.20;5.03;;;27.50;80.10;;;;;;7385676;19;20015;-69
2023/07/09 09:28:49;;;;;;;8.93;4.82;;;27.40;80.50;;;;;;7387225;19;20130;-69
2023/07/09 09:31:19;;;;;;;15.40;4.82;;;27.50;80.70;;;;;;7384973;19;20250;-69
2023/07/09 09:33:51;;;;;;;13.93;5.23;;;27.50;80.70;;;;;;7386611;19;20010;-69
2023/07/09 09:36:23;;;;;;;10.25;5.57;;;27.40;80.50;;;;;;7383606;19;20081;-70
2023/07/09 09:38:53;;;;;;;12.18;5.70;;;27.10;81.10;;;;;;7408794;19;20226;-69
2023/07/09 09:41:26;;;;;;;15.95;5.70;;;27.00;82.50;;;;;;7387690;19;20025;-69
2023/07/09 09:43:57;;;;;;;13.48;5.30;;;26.80;83.60;;;;;;7388000;19;20014;-70
2023/07/09 09:46:27;;;;;;;10.65;5.57;;;26.70;84.50;;;;;;7388801;19;20006;-70
2023/07/09 09:48:58;;;;;;;12.35;5.85;;;26.70;85.80;;;;;;7389129;19;20003;-69
2023/07/09 09:51:27;;;;;;;17.92;5.55;;;26.60;86.60;;;;;;7390075;19;20012;-69
2023/07/09 09:54:01;;;;;;;14.30;5.53;;;26.60;86.70;;;;;;7408838;19;20019;-69
2023/07/09 09:56:38;;;;;;;8.02;5.78;;;26.60;86.80;;;;;;7387334;19;20236;-69
2023/07/09 09:59:08;;;;;;;8.55;5.43;;;26.60;86.90;;;;;;7388204;19;20276;-69
2023/07/09 10:01:38;;;;;;;16.48;5.82;;;26.70;87.50;;;;;;7389172;19;20119;-70
2023/07/09 10:04:08;;;;;;;8.65;5.70;;;26.80;88.20;;;;;;7390313;19;20010;-70
2023/07/09 10:06:40;;;;;;;13.65;5.90;;;27.00;89.00;;;;;;7390060;19;20016;-71
2023/07/09 10:09:21;;;;;;;10.38;5.50;;;27.10;89.20;;;;;;7410731;19;20022;-71
2023/07/09 10:11:55;;;;;;;;;;;27.10;89.00;;;;;;7388632;19;20023;-69
2023/07/09 10:14:40;;;;;;;14.27;6.88;;;27.30;88.70;;;;;;7387286;19;20279;-68
2023/07/09 10:17:18;;;;;;;15.18;7.18;;;27.30;88.50;;;;;;7387181;19;20023;-69
2023/07/09 10:19:52;;;;;;;13.65;6.60;;;27.50;88.60;;;;;;7386427;19;20010;-69
2023/07/09 10:22:37;;;;;;;9.20;5.75;;;27.60;86.80;;;;;;7386200;19;20031;-69
2023/07/09 10:25:19;;;;;;;15.63;5.75;;;27.50;86.00;;;;;;7388053;19;20023;-69
2023/07/09 10:28:02;;;;;;;11.95;5.75;;;27.50;85.70;;;;;;7386637;19;20018;-68
2023/07/09 10:30:44;;;;;;;9.10;5.82;;;27.70;86.40;;;;;;7384918;19;20300;-69
2023/07/09 10:33:15;;;;;;;15.75;6.47;;;27.70;84.90;;;;;;7406171;19;20010;-69
2023/07/09 10:35:53;;;;;;;9.10;5.57;;;27.90;85.60;;;;;;7387031;19;20020;-69
2023/07/09 10:38:48;;;;;;;13.50;5.65;;;27.80;85.70;;;;;;7388301;19;20066;-71
2023/07/09 10:41:18;;;;;;;11.20;5.57;;;27.80;84.80;;;;;;7386876;19;20019;-71
2023/07/09 10:43:53;;;;;;;10.77;6.00;;;27.90;83.80;;;;;;7386362;19;20028;-71
2023/07/09 10:46:24;;;;;;;9.95;5.38;;;27.90;83.80;;;;;;7387355;19;20288;-70
2023/07/09 10:48:56;;;;;;;12.00;5.45;;;27.90;84.40;;;;;;7387947;19;20016;-70
2023/07/09 10:51:29;;;;;;;20.67;6.05;;;28.00;84.80;;;;;;7388553;19;20391;-71
2023/07/09 10:54:06;;;;;;;14.90;6.15;;;28.20;85.50;;;;;;7413676;19;20076;-71
2023/07/09 10:56:38;;;;;;;9.73;5.80;;;28.20;82.10;;;;;;7391274;19;20007;-70
2023/07/09 10:59:26;;;;;;;17.50;6.93;;;28.20;81.70;;;;;;7387968;19;20034;-70
2023/07/09 11:01:59;;;;;;;14.18;6.80;;;28.30;82.30;;;;;;7386150;19;20386;-70
2023/07/09 11:04:35;;;;;;;12.50;7.22;;;28.30;81.80;;;;;;7386273;19;20409;-71
2023/07/09 11:07:08;;;;;;;13.93;6.35;;;28.40;81.30;;;;;;7384402;19;20428;-70
2023/07/09 11:09:41;;;;;;;14.60;6.13;;;28.50;81.90;;;;;;7390489;19;20027;-71
2023/07/09 11:12:14;;;;;;;13.65;6.07;;;28.50;81.40;;;;;;7410551;19;20015;-69
2023/07/09 11:14:50;;;;;;;11.07;5.93;;;28.60;80.90;;;;;;7389678;19;20058;-69
2023/07/09 11:17:22;;;;;;;9.85;5.95;;;28.50;79.50;;;;;;7387130;19;20326;-69
2023/07/09 11:19:56;;;;;;;11.50;6.43;;;28.70;79.40;;;;;;7386798;19;20010;-70
2023/07/09 11:22:27;;;;;;;9.60;5.50;;;28.70;78.70;;;;;;7387009;19;20285;-71
2023/07/09 11:25:09;;;;;;;15.80;5.15;;;28.60;79.10;;;;;;7387047;19;20002;-70
2023/07/09 11:27:50;;;;;;;9.88;5.50;;;28.70;78.60;;;;;;7387907;19;20017;-70
2023/07/09 11:30:27;;;;;;;10.38;5.25;;;28.90;78.40;;;;;;7390525;19;20020;-70
2023/07/09 11:32:59;;;;;;;10.45;4.95;;;29.00;77.90;;;;;;7406228;19;20011;-70
2023/07/09 11:35:30;;;;;;;12.55;5.18;;;29.10;77.70;;;;;;7384415;19;20028;-70
2023/07/09 11:38:09;;;;;;;7.53;4.82;;;29.20;75.80;;;;;;7385737;19;20307;-69
2023/07/09 11:40:49;;;;;;;15.52;4.90;;;29.30;76.00;;;;;;7385195;19;20012;-69
2023/07/09 11:43:31;;;;;;;10.70;5.88;;;29.40;75.60;;;;;;7385601;19;20002;-70
2023/07/09 11:46:13;;;;;;;8.73;5.63;;;29.50;76.30;;;;;;7384559;19;20003;-69
2023/07/09 11:48:43;;;;;;;10.10;5.80;;;29.70;75.30;;;;;;7384271;19;20003;-70
2023/07/09 11:51:18;;;;;;;9.82;5.53;;;29.70;73.60;;;;;;7406517;19;20299;-70
2023/07/09 11:53:50;;;;;;;12.02;6.22;;;29.80;74.10;;;;;;7385862;19;20019;-69
2023/07/09 11:56:21;;;;;;;10.20;5.88;;;29.80;74.20;;;;;;7382493;19;20358;-69
2023/07/09 11:58:54;;;;;;;13.50;6.15;;;29.90;73.30;;;;;;7387037;19;20007;-69
2023/07/09 12:01:28;;;;;;;12.48;5.47;;;29.80;73.70;;;;;;7387298;19;20392;-70
2023/07/09 12:03:59;;;;;;;9.82;5.72;;;29.90;73.70;;;;;;7386779;19;20019;-69
2023/07/09 12:06:31;;;;;;;7.78;5.00;;;29.90;73.40;;;;;;7384552;19;20358;-69
2023/07/09 12:09:00;;;;;;;12.40;5.35;;;30.00;73.40;;;;;;7405972;19;20015;-69
2023/07/09 12:11:31;;;;;;;11.23;5.15;;;29.90;73.20;;;;;;7383824;19;20010;-69
2023/07/09 12:14:05;;;;;;;9.32;4.80;;;29.90;72.70;;;;;;7383494;19;20015;-69
2023/07/09 12:16:40;;;;;;;9.05;5.25;;;29.80;72.70;;;;;;7385344;19;20013;-69
2023/07/09 12:19:09;;;;;;;9.75;5.00;;;29.90;73.40;;;;;;7386554;19;20107;-69
2023/07/09 12:21:41;;;;;;;8.50;4.60;;;29.90;72.50;;;;;;7387254;19;20016;-69
2023/07/09 12:24:21;;;;;;;11.68;4.90;;;29.90;73.00;;;;;;7405404;19;20094;-69
2023/07/09 12:26:55;;;;;;;9.40;4.95;;;29.90;73.00;;;;;;7383454;19;20362;-69
2023/07/09 12:29:27;;;;;;;9.52;4.93;;;29.70;72.80;;;;;;7384578;19;20007;-69
2023/07/09 12:32:05;;;;;;;8.50;5.00;;;29.60;71.50;;;;;;7385139;19;20014;-69
2023/07/09 12:34:34;;;;;;;8.77;4.60;;;29.50;71.90;;;;;;7381772;19;20006;-70
2023/07/09 12:37:03;;;;;;;9.35;5.07;;;29.70;72.50;;;;;;7383645;19;20003;-69
2023/07/09 12:39:35;;;;;;;8.80;4.50;;;29.50;70.90;;;;;;7382060;19;20304;-69
2023/07/09 12:42:05;;;;;;;9.40;4.88;;;29.60;71.50;;;;;;7407032;19;20346;-70
2023/07/09 12:44:37;;;;;;;10.77;4.53;;;29.70;71.60;;;;;;7383351;19;20074;-71
2023/07/09 12:47:15;;;;;;;10.20;4.50;;;29.80;71.30;;;;;;7383650;19;20104;-74
2023/07/09 12:49:47;;;;;;;15.15;4.85;;;29.90;70.80;;;;;;7384181;19;20014;-69
2023/07/09 12:52:21;;;;;;;6.78;4.57;;;30.00;70.20;;;;;;7385065;19;20026;-70
2023/07/09 12:54:59;;;;;;;11.63;4.90;;;30.10;70.20;;;;;;7381966;19;20320;-70
2023/07/09 12:57:30;;;;;;;7.00;4.68;;;30.20;68.80;;;;;;7384609;19;20074;-70
2023/07/09 12:59:59;;;;;;;8.70;4.55;;;30.20;68.20;;;;;;7406400;19;20223;-70
2023/07/09 13:02:31;;;;;;;9.45;4.45;;;30.30;68.80;;;;;;7383221;19;20354;-71